Time;durP1;ratioP1;P1;durP2;ratioP2;P2;SDS_P1;SDS_P2;PMS_P1;PMS_P2;Temp;Humidity;BMP_temperature;BMP_pressure;BME280_temperature;BME280_humidity;BME280_pressure;Samples;Min_cycle;Max_cycle;Signal;HPM_P1;HPM_P2
2022/08/23 00:01:11;;;;;;;1.20;0.80;;;25.80;47.50;;;;;;5063777;28;20033;-68
2022/08/23 00:03:37;;;;;;;1.13;1.00;;;25.80;47.50;;;;;;5063472;28;20025;-66
2022/08/23 00:06:03;;;;;;;1.35;0.80;;;25.80;47.60;;;;;;5064281;28;20031;-65
2022/08/23 00:08:29;;;;;;;1.50;0.98;;;25.80;47.50;;;;;;5065409;28;20096;-65
2022/08/23 00:10:55;;;;;;;1.67;0.90;;;25.80;47.60;;;;;;5060993;28;20021;-65
2022/08/23 00:13:21;;;;;;;1.25;0.80;;;25.80;47.60;;;;;;5064729;28;20047;-65
2022/08/23 00:15:47;;;;;;;1.35;0.88;;;25.80;47.60;;;;;;5064253;28;20056;-65
2022/08/23 00:18:14;;;;;;;1.20;0.90;;;25.80;47.60;;;;;;5064810;28;20067;-65
2022/08/23 00:20:40;;;;;;;1.42;0.80;;;25.80;47.60;;;;;;5065150;28;20484;-65
2022/08/23 00:23:05;;;;;;;0.80;0.80;;;25.80;47.60;;;;;;5063506;28;20028;-67
2022/08/23 00:25:31;;;;;;;1.30;0.80;;;25.80;47.60;;;;;;5064244;28;20044;-65
2022/08/23 00:27:57;;;;;;;1.15;0.80;;;25.80;47.60;;;;;;5062968;28;20463;-65
2022/08/23 00:30:22;;;;;;;1.70;0.90;;;25.80;47.60;;;;;;5063448;28;20036;-66
2022/08/23 00:32:48;;;;;;;0.63;0.60;;;25.70;47.60;;;;;;5064926;28;20472;-65
2022/08/23 00:35:15;;;;;;;1.95;0.80;;;25.70;47.60;;;;;;5063155;28;20024;-65
2022/08/23 00:37:41;;;;;;;0.93;0.80;;;25.80;47.70;;;;;;5064174;28;20036;-65
2022/08/23 00:40:10;;;;;;;1.70;0.80;;;25.70;47.60;;;;;;5063937;28;20028;-66
2022/08/23 00:48:43;;;;;;;0.90;0.80;;;25.70;47.60;;;;;;5063587;28;20047;-66
2022/08/23 00:51:21;;;;;;;1.00;0.75;;;25.70;47.70;;;;;;5063136;28;20082;-66
2022/08/23 00:53:52;;;;;;;2.08;1.00;;;25.70;47.70;;;;;;5062730;28;20025;-66
2022/08/23 00:56:19;;;;;;;0.98;0.80;;;25.70;47.70;;;;;;5063675;28;20460;-66
2022/08/23 00:58:45;;;;;;;1.40;0.70;;;25.70;47.70;;;;;;5063250;28;20033;-66
2022/08/23 01:01:12;;;;;;;0.80;0.80;;;25.70;48.20;;;;;;5063041;28;20420;-66
2022/08/23 01:03:41;;;;;;;0.80;0.75;;;25.70;47.70;;;;;;5062806;28;20032;-66
2022/08/23 01:06:21;;;;;;;1.30;0.90;;;25.70;47.70;;;;;;5062547;28;20079;-66
2022/08/23 01:08:58;;;;;;;1.05;0.70;;;25.70;47.70;;;;;;5062466;28;20024;-66
2022/08/23 01:11:41;;;;;;;0.95;0.75;;;25.70;47.70;;;;;;5064157;28;20031;-66
2022/08/23 01:14:10;;;;;;;0.80;0.80;;;25.70;47.70;;;;;;5063052;28;20139;-66
2022/08/23 01:16:44;;;;;;;1.00;0.80;;;25.70;47.70;;;;;;5064656;28;20025;-66
2022/08/23 01:19:34;;;;;;;1.52;0.80;;;25.70;47.70;;;;;;5064144;28;20120;-66
2022/08/23 01:22:27;;;;;;;0.98;0.77;;;25.70;47.70;;;;;;5063347;28;20128;-66
2022/08/23 01:24:54;;;;;;;1.55;0.80;;;25.70;47.70;;;;;;5062612;28;20111;-66
2022/08/23 01:27:19;;;;;;;1.25;0.80;;;25.70;47.70;;;;;;5062382;28;20068;-65
2022/08/23 01:29:46;;;;;;;1.00;0.90;;;25.70;47.80;;;;;;5063828;28;20056;-66
2022/08/23 01:32:12;;;;;;;1.27;0.73;;;25.70;47.70;;;;;;5060759;28;20068;-65
2022/08/23 01:34:38;;;;;;;0.82;0.75;;;25.70;47.80;;;;;;5062642;28;20104;-66
2022/08/23 01:37:07;;;;;;;0.65;0.60;;;25.70;47.80;;;;;;5062883;28;20215;-66
2022/08/23 01:39:34;;;;;;;0.82;0.80;;;25.70;47.80;;;;;;5062532;28;20035;-65
2022/08/23 01:42:00;;;;;;;1.42;0.80;;;25.70;47.80;;;;;;5062828;28;20032;-66
2022/08/23 01:44:26;;;;;;;1.38;1.00;;;25.70;47.80;;;;;;5062439;28;20469;-65
2022/08/23 01:46:52;;;;;;;1.08;0.80;;;25.70;47.80;;;;;;5063241;28;20434;-67
2022/08/23 01:49:18;;;;;;;0.70;0.70;;;25.70;47.80;;;;;;5062642;28;20337;-65
2022/08/23 01:51:44;;;;;;;0.93;0.73;;;25.60;47.80;;;;;;5063153;28;20032;-65
2022/08/23 01:54:10;;;;;;;1.08;0.70;;;25.60;47.80;;;;;;5062594;28;20025;-66
2022/08/23 01:56:36;;;;;;;1.27;0.90;;;25.60;47.80;;;;;;5061751;28;20033;-65
2022/08/23 01:59:03;;;;;;;0.80;0.80;;;25.60;47.80;;;;;;5063212;28;20587;-66
2022/08/23 02:01:28;;;;;;;1.25;0.88;;;25.60;47.80;;;;;;5059744;28;20036;-64
2022/08/23 02:03:54;;;;;;;1.30;0.80;;;25.60;47.80;;;;;;5063276;28;20028;-65
2022/08/23 02:06:20;;;;;;;0.75;0.70;;;25.60;47.80;;;;;;5061631;28;20021;-65
2022/08/23 02:09:01;;;;;;;0.80;0.80;;;25.60;47.80;;;;;;5062661;28;20032;-65
2022/08/23 02:11:36;;;;;;;0.95;0.85;;;25.60;47.80;;;;;;5061057;28;20025;-65
2022/08/23 02:14:06;;;;;;;0.90;0.80;;;25.60;47.80;;;;;;5061469;28;20412;-65
2022/08/23 02:16:35;;;;;;;0.70;0.70;;;25.60;47.80;;;;;;5061605;28;20056;-65
2022/08/23 02:19:04;;;;;;;0.70;0.70;;;25.60;47.80;;;;;;5062522;28;20029;-65
2022/08/23 02:21:30;;;;;;;;;;;25.60;47.80;;;;;;5062426;28;20444;-65
2022/08/23 02:23:57;;;;;;;0.93;0.80;;;25.60;47.80;;;;;;5062162;28;19920;-65
2022/08/23 02:26:23;;;;;;;1.00;0.80;;;25.60;47.90;;;;;;5060875;28;20033;-66
2022/08/23 02:28:50;;;;;;;0.80;0.80;;;25.60;47.90;;;;;;5057986;28;20029;-66
2022/08/23 02:31:16;;;;;;;1.52;0.80;;;25.50;47.80;;;;;;5061786;28;20058;-66
2022/08/23 02:33:42;;;;;;;1.20;0.90;;;25.50;47.80;;;;;;5061308;28;20401;-66
2022/08/23 02:36:08;;;;;;;0.90;0.80;;;25.50;47.80;;;;;;5061737;28;20025;-66
2022/08/23 02:38:34;;;;;;;1.00;0.75;;;25.50;47.80;;;;;;5061049;28;20032;-65
2022/08/23 02:41:00;;;;;;;1.05;0.85;;;25.60;47.90;;;;;;5062728;28;20091;-66
2022/08/23 02:43:26;;;;;;;0.80;0.70;;;25.60;47.90;;;;;;5076389;28;20024;-66
2022/08/23 02:45:52;;;;;;;0.90;0.80;;;25.50;47.90;;;;;;5060501;28;20028;-66
2022/08/23 02:48:17;;;;;;;1.20;0.80;;;25.50;47.90;;;;;;5062094;28;20017;-66
2022/08/23 02:50:43;;;;;;;0.85;0.70;;;25.50;47.90;;;;;;5061565;28;20032;-66
2022/08/23 02:53:09;;;;;;;0.63;0.63;;;25.50;47.90;;;;;;5061845;28;20098;-65
2022/08/23 02:55:34;;;;;;;0.75;0.70;;;25.50;47.90;;;;;;5060883;28;20064;-66
2022/08/23 02:58:00;;;;;;;1.45;0.80;;;25.50;47.90;;;;;;5061403;28;20101;-66
2022/08/23 03:00:26;;;;;;;1.02;0.70;;;25.50;47.90;;;;;;5061933;28;20028;-66
2022/08/23 03:02:52;;;;;;;0.63;0.60;;;25.50;47.90;;;;;;5059642;28;20036;-65
2022/08/23 03:05:17;;;;;;;0.90;0.75;;;25.50;47.90;;;;;;5059511;28;20396;-64
2022/08/23 03:07:44;;;;;;;1.13;0.80;;;25.50;47.90;;;;;;5060995;28;20059;-65
2022/08/23 03:10:11;;;;;;;0.73;0.63;;;25.50;47.90;;;;;;5060590;28;20032;-65
2022/08/23 03:12:37;;;;;;;0.70;0.70;;;25.50;48.00;;;;;;5061621;28;20075;-66
2022/08/23 03:15:05;;;;;;;0.77;0.75;;;25.50;47.90;;;;;;5058009;28;20094;-67
2022/08/23 03:17:31;;;;;;;1.02;0.80;;;25.40;47.90;;;;;;5061108;28;20028;-67
2022/08/23 03:19:56;;;;;;;1.38;0.70;;;25.50;48.00;;;;;;5061643;28;20033;-65
2022/08/23 03:22:22;;;;;;;1.17;0.80;;;25.50;48.00;;;;;;5060118;28;20107;-65
2022/08/23 03:24:48;;;;;;;0.93;0.75;;;25.50;48.00;;;;;;5061561;28;20515;-64
2022/08/23 03:27:14;;;;;;;0.82;0.73;;;25.50;48.00;;;;;;5060705;28;20541;-65
2022/08/23 03:29:40;;;;;;;0.65;0.60;;;25.40;47.90;;;;;;5060003;28;20025;-65
2022/08/23 03:32:06;;;;;;;0.88;0.73;;;25.50;48.00;;;;;;5060930;28;20373;-65
2022/08/23 03:34:32;;;;;;;0.70;0.70;;;25.50;48.00;;;;;;5061815;28;20028;-65
2022/08/23 03:36:58;;;;;;;0.68;0.68;;;25.40;47.90;;;;;;5060036;28;20024;-65
2022/08/23 03:39:24;;;;;;;0.80;0.68;;;25.40;47.90;;;;;;5060530;28;20028;-66
2022/08/23 03:41:49;;;;;;;0.60;0.60;;;25.40;47.90;;;;;;5061515;28;20400;-67
2022/08/23 03:44:15;;;;;;;0.75;0.70;;;25.40;47.90;;;;;;5060877;28;20020;-65
2022/08/23 03:46:41;;;;;;;0.73;0.70;;;25.40;48.00;;;;;;5060398;28;20111;-66
2022/08/23 03:49:06;;;;;;;1.00;0.90;;;25.40;47.90;;;;;;5061683;28;20033;-65
2022/08/23 03:51:33;;;;;;;0.77;0.60;;;25.40;48.00;;;;;;5060458;28;20062;-65
2022/08/23 03:53:59;;;;;;;0.65;0.65;;;25.40;48.00;;;;;;5060802;28;20124;-65
2022/08/23 03:56:28;;;;;;;0.75;0.63;;;25.40;48.00;;;;;;5061171;28;20405;-65
2022/08/23 03:58:56;;;;;;;1.27;0.95;;;25.40;48.00;;;;;;5059951;28;20021;-65
2022/08/23 04:01:22;;;;;;;0.80;0.70;;;25.40;48.00;;;;;;5060227;28;20337;-65
2022/08/23 04:03:48;;;;;;;0.82;0.70;;;25.40;48.00;;;;;;5061229;28;20033;-64
2022/08/23 04:06:15;;;;;;;1.00;0.80;;;25.40;48.00;;;;;;5060310;28;20022;-65
2022/08/23 04:08:41;;;;;;;0.90;0.70;;;25.40;48.00;;;;;;5060686;28;20143;-66
2022/08/23 04:11:08;;;;;;;0.93;0.80;;;25.40;48.00;;;;;;5061353;28;20028;-65
2022/08/23 04:13:35;;;;;;;0.80;0.70;;;25.40;48.00;;;;;;5059851;28;20041;-65
2022/08/23 04:16:02;;;;;;;0.93;0.80;;;25.40;48.00;;;;;;5060511;28;20028;-65
2022/08/23 04:18:30;;;;;;;0.68;0.68;;;25.40;48.00;;;;;;5060432;28;20106;-65
2022/08/23 04:20:57;;;;;;;0.93;0.70;;;25.40;48.10;;;;;;5061141;28;20061;-64
2022/08/23 04:23:24;;;;;;;0.90;0.70;;;25.40;48.00;;;;;;5060073;28;20052;-66
2022/08/23 04:25:50;;;;;;;0.85;0.70;;;25.30;48.00;;;;;;5061018;28;20111;-65
2022/08/23 04:28:17;;;;;;;0.88;0.70;;;25.40;48.00;;;;;;5060565;28;20140;-65
2022/08/23 04:30:44;;;;;;;0.65;0.65;;;25.40;48.10;;;;;;5060241;28;20488;-66
2022/08/23 04:33:10;;;;;;;0.93;0.70;;;25.30;48.00;;;;;;5059793;28;20075;-66
2022/08/23 04:35:35;;;;;;;0.90;0.70;;;25.40;48.00;;;;;;5060440;28;20426;-65
2022/08/23 04:38:01;;;;;;;0.60;0.60;;;25.30;48.50;;;;;;5060601;28;20029;-65
2022/08/23 04:43:11;;;;;;;0.80;0.60;;;25.30;48.50;;;;;;5064561;28;20492;-66
2022/08/23 04:45:38;;;;;;;0.63;0.63;;;25.30;48.00;;;;;;5064061;28;20048;-66
2022/08/23 04:48:04;;;;;;;0.85;0.75;;;25.30;48.00;;;;;;5063239;28;20051;-66
2022/08/23 04:50:30;;;;;;;1.30;0.90;;;25.30;48.00;;;;;;5064259;28;20434;-66
2022/08/23 04:52:56;;;;;;;0.63;0.63;;;25.30;48.00;;;;;;5064853;28;20028;-65
2022/08/23 04:55:21;;;;;;;0.70;0.70;;;25.30;48.50;;;;;;5063460;28;20410;-66
2022/08/23 04:57:47;;;;;;;1.10;0.90;;;25.20;48.00;;;;;;5064069;28;20563;-66
2022/08/23 05:00:15;;;;;;;0.93;0.60;;;25.30;48.00;;;;;;5063132;28;20384;-66
2022/08/23 05:02:41;;;;;;;0.80;0.70;;;25.30;48.00;;;;;;5064124;28;20498;-65
2022/08/23 05:05:08;;;;;;;0.77;0.68;;;25.30;48.00;;;;;;5063139;28;20100;-65
2022/08/23 05:07:34;;;;;;;0.80;0.70;;;25.30;48.00;;;;;;5063191;28;20510;-64
2022/08/23 05:10:00;;;;;;;0.75;0.60;;;25.30;48.00;;;;;;5062938;28;20391;-65
2022/08/23 05:12:27;;;;;;;0.77;0.70;;;25.30;48.00;;;;;;5062625;28;20048;-65
2022/08/23 05:14:52;;;;;;;0.60;0.60;;;25.20;48.00;;;;;;5064227;28;20036;-65
2022/08/23 05:17:18;;;;;;;0.50;0.50;;;25.30;48.00;;;;;;5062916;28;20509;-65
2022/08/23 05:19:43;;;;;;;0.60;0.60;;;25.30;48.50;;;;;;5063463;28;20096;-64
2022/08/23 05:22:09;;;;;;;0.65;0.60;;;25.30;48.00;;;;;;5063078;28;20033;-65
2022/08/23 05:24:34;;;;;;;0.80;0.70;;;25.30;48.00;;;;;;5063092;28;20039;-65
2022/08/23 05:27:00;;;;;;;0.70;0.70;;;25.30;48.00;;;;;;5061151;28;20108;-65
2022/08/23 05:29:25;;;;;;;0.90;0.70;;;25.30;48.10;;;;;;5063641;28;20473;-66
2022/08/23 05:31:51;;;;;;;0.70;0.70;;;25.20;48.00;;;;;;5061434;28;20182;-65
2022/08/23 05:34:17;;;;;;;0.82;0.70;;;25.30;48.10;;;;;;5064148;28;20472;-65
2022/08/23 05:36:43;;;;;;;0.63;0.63;;;25.20;48.00;;;;;;5061866;28;20033;-66
2022/08/23 05:39:08;;;;;;;1.15;0.73;;;25.30;48.00;;;;;;5062997;28;20103;-65
2022/08/23 05:41:34;;;;;;;0.63;0.60;;;25.20;48.50;;;;;;5063222;28;20029;-65
2022/08/23 05:43:59;;;;;;;0.50;0.50;;;25.20;48.00;;;;;;5062660;28;20028;-64
2022/08/23 05:46:25;;;;;;;1.50;0.75;;;25.20;48.00;;;;;;5062484;28;20033;-64
2022/08/23 05:48:51;;;;;;;1.00;0.68;;;25.20;48.00;;;;;;5062944;28;20020;-65
2022/08/23 05:51:24;;;;;;;0.80;0.70;;;25.20;48.00;;;;;;5060937;28;20037;-65
2022/08/23 05:53:52;;;;;;;0.60;0.60;;;25.20;48.00;;;;;;5061479;28;20369;-64
2022/08/23 05:56:19;;;;;;;0.65;0.65;;;25.20;48.00;;;;;;5058789;28;20021;-65
2022/08/23 05:58:46;;;;;;;0.80;0.80;;;25.20;48.00;;;;;;5062639;28;20039;-64
2022/08/23 06:01:12;;;;;;;0.70;0.70;;;25.20;48.00;;;;;;5062041;28;20112;-65
2022/08/23 06:03:39;;;;;;;0.55;0.55;;;25.20;48.00;;;;;;5062823;28;20487;-64
2022/08/23 06:06:05;;;;;;;0.70;0.70;;;25.20;48.00;;;;;;5059129;28;20094;-64
2022/08/23 06:08:33;;;;;;;0.70;0.70;;;25.20;48.00;;;;;;5063100;28;20095;-65
2022/08/23 06:11:05;;;;;;;0.80;0.60;;;25.20;48.00;;;;;;5062260;28;20539;-65
2022/08/23 06:13:30;;;;;;;1.17;0.70;;;25.20;48.00;;;;;;5060090;28;20182;-65
2022/08/23 06:15:57;;;;;;;0.70;0.70;;;25.20;48.00;;;;;;5061759;28;20584;-65
2022/08/23 06:18:24;;;;;;;0.80;0.70;;;25.20;48.00;;;;;;5063489;28;20036;-65
2022/08/23 06:20:59;;;;;;;0.60;0.60;;;25.20;48.00;;;;;;5061811;28;20086;-65
2022/08/23 06:23:25;;;;;;;1.13;0.70;;;25.20;48.00;;;;;;5062533;28;20047;-65
2022/08/23 06:25:51;;;;;;;0.60;0.60;;;25.20;48.00;;;;;;5061574;28;20037;-65
2022/08/23 06:28:17;;;;;;;0.60;0.60;;;25.20;48.00;;;;;;5063011;28;20021;-63
2022/08/23 06:30:42;;;;;;;0.95;0.60;;;25.20;48.00;;;;;;5059944;28;20093;-64
2022/08/23 06:33:08;;;;;;;0.52;0.52;;;25.20;48.00;;;;;;5063453;28;20150;-64
2022/08/23 06:35:33;;;;;;;0.80;0.70;;;25.10;48.00;;;;;;5060459;28;20029;-64
2022/08/23 06:38:02;;;;;;;0.63;0.60;;;25.10;48.00;;;;;;5063249;28;20557;-65
2022/08/23 06:40:28;;;;;;;0.75;0.70;;;25.20;48.00;;;;;;5060562;28;20346;-65
2022/08/23 06:42:53;;;;;;;0.60;0.60;;;25.10;48.00;;;;;;5062821;28;20158;-65
2022/08/23 06:45:19;;;;;;;0.55;0.55;;;25.10;48.00;;;;;;5060710;28;20029;-64
2022/08/23 06:47:45;;;;;;;0.70;0.60;;;25.10;48.00;;;;;;5061713;28;20028;-64
2022/08/23 06:50:11;;;;;;;1.10;0.82;;;25.20;48.00;;;;;;5061307;28;20431;-66
2022/08/23 06:52:37;;;;;;;2.45;1.30;;;25.20;47.90;;;;;;5061285;28;20104;-65
2022/08/23 06:55:03;;;;;;;3.08;1.38;;;25.20;47.40;;;;;;5061355;28;20095;-65
2022/08/23 06:57:29;;;;;;;2.83;1.48;;;25.20;46.80;;;;;;5061016;28;20027;-65
2022/08/23 06:59:54;;;;;;;3.00;1.60;;;25.10;46.10;;;;;;5061392;28;20496;-65
2022/08/23 07:02:20;;;;;;;2.75;1.63;;;25.10;45.80;;;;;;5061452;28;20050;-64
2022/08/23 07:04:52;;;;;;;3.15;1.85;;;25.00;46.10;;;;;;5060307;28;20035;-65
2022/08/23 07:07:18;;;;;;;2.50;1.50;;;25.00;46.10;;;;;;5060192;28;20115;-65
2022/08/23 07:09:44;;;;;;;2.67;1.55;;;25.00;45.80;;;;;;5060590;28;20073;-65
2022/08/23 07:12:10;;;;;;;2.00;1.35;;;25.00;46.50;;;;;;5061012;28;20036;-65
2022/08/23 07:14:37;;;;;;;2.65;1.50;;;24.90;46.00;;;;;;5061988;28;20048;-64
2022/08/23 07:17:02;;;;;;;2.40;1.50;;;24.80;46.20;;;;;;5061171;28;20059;-65
2022/08/23 07:19:31;;;;;;;3.40;1.67;;;24.80;46.00;;;;;;5060488;28;20091;-64
2022/08/23 07:21:58;;;;;;;3.17;1.43;;;24.70;46.20;;;;;;5060702;28;20021;-64
2022/08/23 07:24:24;;;;;;;3.15;1.48;;;24.60;46.40;;;;;;5061585;28;20258;-64
2022/08/23 07:26:53;;;;;;;2.17;1.20;;;24.70;46.60;;;;;;5061370;28;20468;-65
2022/08/23 07:29:20;;;;;;;2.75;1.30;;;24.70;46.70;;;;;;5060545;28;20088;-64
2022/08/23 07:31:53;;;;;;;2.15;1.10;;;24.60;46.70;;;;;;5059990;28;20144;-64
2022/08/23 07:34:19;;;;;;;2.70;1.35;;;24.70;46.80;;;;;;5060519;28;20094;-64
2022/08/23 07:36:46;;;;;;;1.67;1.15;;;24.70;46.90;;;;;;5060478;28;20031;-62
2022/08/23 07:39:14;;;;;;;2.33;1.20;;;24.70;47.00;;;;;;5060460;28;20104;-63
2022/08/23 07:41:40;;;;;;;1.88;1.05;;;24.70;46.90;;;;;;5060787;28;20044;-63
2022/08/23 07:44:08;;;;;;;1.77;1.00;;;24.70;47.00;;;;;;5060739;28;20032;-64
2022/08/23 07:46:35;;;;;;;1.17;0.90;;;24.70;47.00;;;;;;5058783;28;20120;-64
2022/08/23 07:49:03;;;;;;;1.42;0.90;;;24.70;47.10;;;;;;5060770;28;20025;-64
2022/08/23 07:51:31;;;;;;;1.23;0.85;;;24.70;47.10;;;;;;5059530;28;20441;-64
2022/08/23 07:53:57;;;;;;;1.60;1.00;;;24.70;47.10;;;;;;5060834;28;20024;-64
2022/08/23 07:56:23;;;;;;;1.98;1.10;;;24.70;47.20;;;;;;5060702;28;20020;-64
2022/08/23 07:58:49;;;;;;;1.80;1.00;;;24.60;47.20;;;;;;5059754;28;20024;-64
2022/08/23 08:01:25;;;;;;;2.05;0.90;;;24.70;47.30;;;;;;5059605;28;20370;-65
2022/08/23 08:03:53;;;;;;;1.55;0.90;;;24.60;47.30;;;;;;5059444;28;20032;-64
2022/08/23 08:06:21;;;;;;;1.88;1.00;;;24.70;47.30;;;;;;5059364;28;20404;-64
2022/08/23 08:08:48;;;;;;;1.63;1.00;;;24.70;47.40;;;;;;5060184;28;20028;-64
2022/08/23 08:11:17;;;;;;;1.30;1.00;;;24.70;47.40;;;;;;5061184;28;20037;-64
2022/08/23 08:13:45;;;;;;;1.97;1.07;;;24.60;47.40;;;;;;5062437;28;20484;-64
2022/08/23 08:16:38;;;;;;;1.05;0.82;;;24.70;47.50;;;;;;5063687;28;20620;-64
2022/08/23 08:19:06;;;;;;;2.63;1.10;;;24.70;48.00;;;;;;5062692;28;20499;-63
2022/08/23 08:21:32;;;;;;;1.50;0.98;;;24.60;47.50;;;;;;5080627;28;20024;-64
2022/08/23 08:23:58;;;;;;;2.55;1.00;;;24.70;47.50;;;;;;5065281;28;20108;-63
2022/08/23 08:26:25;;;;;;;1.50;0.90;;;24.70;47.60;;;;;;5063563;28;20123;-64
2022/08/23 08:28:51;;;;;;;2.00;1.15;;;24.60;47.60;;;;;;5064588;28;20536;-64
2022/08/23 08:31:17;;;;;;;1.15;0.90;;;24.70;47.60;;;;;;5062091;28;20038;-63
2022/08/23 08:33:43;;;;;;;2.00;1.10;;;24.60;47.60;;;;;;5065058;28;20024;-63
2022/08/23 08:36:31;;;;;;;1.45;1.00;;;24.70;47.70;;;;;;5063827;28;20484;-64
2022/08/23 08:38:57;;;;;;;1.63;1.10;;;24.70;47.70;;;;;;5062668;28;20021;-64
2022/08/23 08:41:44;;;;;;;1.27;0.90;;;24.70;47.70;;;;;;5063601;28;20486;-64
2022/08/23 08:44:35;;;;;;;1.33;0.90;;;24.70;47.70;;;;;;5061520;28;20077;-63
2022/08/23 08:47:36;;;;;;;2.00;1.00;;;24.70;47.80;;;;;;5062532;28;20043;-63
2022/08/23 08:50:08;;;;;;;1.35;0.80;;;24.70;47.80;;;;;;5063339;28;20049;-62
2022/08/23 08:52:42;;;;;;;1.98;1.10;;;24.70;47.80;;;;;;5063005;28;20033;-63
2022/08/23 08:55:15;;;;;;;2.50;1.05;;;24.70;47.80;;;;;;5061893;28;20499;-63
2022/08/23 08:57:44;;;;;;;1.45;1.00;;;24.70;47.90;;;;;;5061759;28;20381;-64
2022/08/23 09:00:13;;;;;;;1.75;1.00;;;24.70;47.90;;;;;;5063600;28;20029;-64
2022/08/23 09:02:40;;;;;;;1.80;1.00;;;24.70;48.00;;;;;;5061914;28;20021;-64
2022/08/23 09:05:11;;;;;;;1.48;1.00;;;24.70;48.00;;;;;;5063024;28;20032;-64
2022/08/23 09:07:49;;;;;;;1.65;1.10;;;24.70;48.10;;;;;;5060686;28;20083;-63
2022/08/23 09:10:21;;;;;;;1.73;0.95;;;24.70;48.00;;;;;;5062173;28;20021;-64
2022/08/23 09:13:05;;;;;;;1.48;0.98;;;24.70;48.10;;;;;;5061647;28;20048;-64
2022/08/23 09:15:55;;;;;;;1.40;0.98;;;24.70;48.10;;;;;;5061710;28;20029;-64
2022/08/23 09:18:23;;;;;;;1.70;0.90;;;24.70;48.10;;;;;;5062469;28;20483;-63
2022/08/23 09:20:52;;;;;;;1.25;0.90;;;24.70;48.10;;;;;;5061694;28;20357;-63
2022/08/23 09:23:24;;;;;;;1.30;1.00;;;24.70;48.10;;;;;;5057577;28;20036;-63
2022/08/23 09:25:58;;;;;;;1.98;1.10;;;24.70;48.20;;;;;;5059588;28;20051;-63
2022/08/23 09:28:25;;;;;;;1.38;1.00;;;24.80;48.20;;;;;;5061991;28;20036;-64
2022/08/23 09:30:56;;;;;;;1.15;0.75;;;24.70;48.10;;;;;;5061197;28;20040;-65
2022/08/23 09:33:24;;;;;;;1.77;1.00;;;24.70;48.20;;;;;;5059911;28;20037;-64
2022/08/23 09:36:22;;;;;;;1.88;1.00;;;24.80;48.20;;;;;;5063708;28;20026;-65
2022/08/23 09:39:21;;;;;;;1.38;0.90;;;24.80;48.20;;;;;;5060552;28;20100;-65
2022/08/23 09:41:47;;;;;;;;;;;24.80;48.10;;;;;;5060934;28;20125;-64
2022/08/23 09:44:34;;;;;;;1.42;0.90;;;24.80;48.10;;;;;;5063513;28;19987;-65
2022/08/23 09:47:15;;;;;;;1.27;0.90;;;24.80;48.00;;;;;;5062374;28;20481;-65
2022/08/23 09:49:43;;;;;;;1.33;0.82;;;24.80;48.00;;;;;;5062622;28;20033;-65
2022/08/23 09:52:19;;;;;;;1.30;0.82;;;24.80;48.50;;;;;;5060471;28;20033;-65
2022/08/23 09:54:54;;;;;;;1.00;0.90;;;24.80;47.90;;;;;;5062495;28;20107;-65
2022/08/23 09:57:24;;;;;;;1.23;0.90;;;24.80;48.00;;;;;;5062636;28;20028;-65
2022/08/23 09:59:50;;;;;;;1.27;0.90;;;24.80;48.00;;;;;;5062338;28;20029;-65
2022/08/23 10:02:31;;;;;;;1.77;1.00;;;24.80;48.10;;;;;;5077975;28;20102;-65
2022/08/23 10:05:04;;;;;;;2.05;1.10;;;24.90;48.20;;;;;;5061564;28;20090;-65
2022/08/23 10:07:42;;;;;;;2.28;1.15;;;24.90;48.20;;;;;;5063291;28;20044;-65
2022/08/23 10:10:17;;;;;;;2.13;1.10;;;24.90;48.30;;;;;;5062878;28;20032;-65
2022/08/23 10:12:44;;;;;;;1.88;0.90;;;24.90;48.40;;;;;;5060921;28;20278;-65
2022/08/23 10:15:09;;;;;;;1.88;0.90;;;24.90;48.40;;;;;;5059163;28;20021;-65
2022/08/23 10:17:48;;;;;;;1.65;0.95;;;24.90;48.40;;;;;;5060215;28;20253;-65
2022/08/23 10:20:49;;;;;;;1.90;1.00;;;24.90;48.40;;;;;;5058787;28;20021;-64
2022/08/23 10:23:49;;;;;;;1.67;1.02;;;24.90;48.30;;;;;;5061716;28;20362;-65
2022/08/23 10:26:25;;;;;;;1.65;1.00;;;24.90;48.30;;;;;;5060896;28;20554;-65
2022/08/23 10:32:20;;;;;;;1.60;0.90;;;24.90;48.30;;;;;;5061010;28;20078;-65
2022/08/23 10:34:51;;;;;;;1.95;0.80;;;24.90;48.40;;;;;;5060877;28;20032;-65
2022/08/23 10:37:23;;;;;;;1.73;0.98;;;24.90;48.40;;;;;;5060832;28;20021;-65
2022/08/23 10:40:07;;;;;;;1.65;1.00;;;24.90;48.40;;;;;;5060560;28;20403;-66
2022/08/23 10:42:36;;;;;;;1.52;0.90;;;25.00;48.70;;;;;;5060525;28;20033;-65
2022/08/23 10:45:16;;;;;;;1.10;0.88;;;25.00;48.70;;;;;;5062545;28;20032;-66
2022/08/23 10:48:01;;;;;;;0.98;0.73;;;25.00;48.60;;;;;;5060806;28;20496;-66
2022/08/23 10:50:41;;;;;;;1.75;0.90;;;25.00;48.50;;;;;;5060758;28;20421;-65
2022/08/23 10:53:13;;;;;;;0.80;0.75;;;25.00;48.50;;;;;;5060712;28;20490;-66
2022/08/23 10:56:01;;;;;;;1.08;0.70;;;25.00;48.50;;;;;;5059382;28;20480;-65
2022/08/23 10:58:33;;;;;;;1.33;0.80;;;25.00;48.50;;;;;;5061090;28;20020;-66
2022/08/23 11:01:00;;;;;;;1.27;0.80;;;25.00;48.50;;;;;;5060760;28;20102;-66
2022/08/23 11:03:31;;;;;;;1.40;1.00;;;25.00;48.50;;;;;;5060737;28;20087;-66
2022/08/23 11:06:27;;;;;;;1.33;0.80;;;25.00;48.50;;;;;;5059309;28;20028;-66
2022/08/23 11:09:08;;;;;;;1.63;1.00;;;25.00;48.50;;;;;;5061239;28;20616;-66
2022/08/23 11:11:53;;;;;;;1.35;1.00;;;25.00;48.50;;;;;;5059276;28;20040;-66
2022/08/23 11:14:45;;;;;;;1.50;0.98;;;25.00;48.50;;;;;;5060381;28;20435;-66
2022/08/23 11:17:23;;;;;;;1.60;0.90;;;25.00;48.50;;;;;;5059281;28;20384;-66
2022/08/23 11:19:58;;;;;;;1.17;0.85;;;25.00;48.60;;;;;;5058302;28;20028;-65
2022/08/23 11:22:55;;;;;;;1.77;1.02;;;25.00;48.50;;;;;;5057955;28;20024;-67
2022/08/23 11:25:21;;;;;;;1.80;1.10;;;25.00;48.60;;;;;;5038187;28;20044;-67
2022/08/23 11:27:47;;;;;;;1.38;0.80;;;25.00;48.60;;;;;;5060080;28;20037;-67
2022/08/23 11:30:30;;;;;;;1.38;0.95;;;25.00;49.10;;;;;;5060837;28;20024;-67
2022/08/23 11:33:15;;;;;;;2.40;1.05;;;25.00;48.60;;;;;;5058577;28;20541;-67
2022/08/23 11:35:43;;;;;;;1.23;0.85;;;25.00;48.60;;;;;;5058964;28;20021;-66
2022/08/23 11:38:09;;;;;;;1.13;0.90;;;25.00;48.60;;;;;;5060344;28;20112;-66
2022/08/23 11:40:49;;;;;;;1.63;0.80;;;25.10;48.70;;;;;;5061613;28;20033;-67
2022/08/23 11:43:28;;;;;;;2.25;0.80;;;25.10;48.70;;;;;;5059652;28;20051;-67
2022/08/23 11:46:14;;;;;;;1.75;0.88;;;25.10;48.70;;;;;;5059438;28;20403;-67
2022/08/23 11:48:47;;;;;;;1.10;0.85;;;25.10;48.70;;;;;;5059449;28;20029;-66
2022/08/23 11:51:27;;;;;;;1.20;0.82;;;25.10;48.70;;;;;;5060370;28;20526;-67
2022/08/23 11:53:59;;;;;;;1.00;0.75;;;25.10;48.60;;;;;;5058177;28;20017;-67
2022/08/23 11:56:36;;;;;;;0.95;0.85;;;25.10;48.70;;;;;;5061418;28;20546;-67
2022/08/23 11:59:28;;;;;;;1.10;0.88;;;25.10;48.70;;;;;;5060262;28;20032;-67
2022/08/23 12:01:55;;;;;;;1.52;1.00;;;25.10;48.70;;;;;;5059827;28;20033;-67
2022/08/23 12:04:47;;;;;;;3.55;1.10;;;25.10;48.70;;;;;;5060509;28;20029;-66
2022/08/23 12:07:13;;;;;;;0.95;0.73;;;25.10;48.70;;;;;;5059718;28;20024;-66
2022/08/23 12:09:41;;;;;;;1.00;0.80;;;25.10;48.70;;;;;;5059987;28;20553;-67
2022/08/23 12:12:23;;;;;;;1.38;0.90;;;25.10;48.70;;;;;;5060175;28;20035;-66
2022/08/23 12:14:55;;;;;;;0.93;0.80;;;25.10;48.70;;;;;;5061191;28;20033;-67
2022/08/23 12:17:24;;;;;;;1.13;0.90;;;25.10;48.60;;;;;;5059342;28;20021;-66
2022/08/23 12:20:06;;;;;;;2.05;1.02;;;25.10;48.70;;;;;;5060790;28;20380;-65
2022/08/23 12:23:02;;;;;;;1.42;0.82;;;25.10;48.70;;;;;;5060475;28;20499;-67
2022/08/23 12:25:30;;;;;;;1.30;0.80;;;25.10;48.70;;;;;;5059373;28;20021;-67
2022/08/23 12:28:38;;;;;;;1.05;0.70;;;25.10;49.20;;;;;;5060468;28;20396;-67
2022/08/23 12:31:46;;;;;;;1.35;0.90;;;25.10;48.70;;;;;;5058743;28;20082;-67
2022/08/23 12:34:39;;;;;;;1.40;0.93;;;25.10;48.70;;;;;;5050875;28;20045;-66
2022/08/23 12:37:25;;;;;;;1.00;0.80;;;25.10;48.70;;;;;;5060210;28;20522;-67
2022/08/23 12:39:56;;;;;;;2.03;0.90;;;25.10;48.70;;;;;;5061074;28;20057;-66
2022/08/23 12:42:30;;;;;;;1.98;0.88;;;25.10;48.70;;;;;;5060988;28;20460;-68
2022/08/23 12:45:15;;;;;;;1.00;0.70;;;25.10;48.70;;;;;;5060990;28;20119;-68
2022/08/23 12:47:42;;;;;;;1.90;0.90;;;25.10;48.70;;;;;;5059162;28;20036;-67
2022/08/23 12:50:33;;;;;;;1.25;0.80;;;25.10;48.70;;;;;;5060860;28;20420;-67
2022/08/23 12:53:06;;;;;;;2.15;0.80;;;25.10;48.70;;;;;;5054626;28;20511;-67
2022/08/23 12:55:35;;;;;;;0.95;0.80;;;25.10;48.70;;;;;;5057601;28;20914;-68
2022/08/23 12:58:01;;;;;;;0.85;0.70;;;25.20;48.80;;;;;;5060947;28;20017;-65
2022/08/23 13:00:43;;;;;;;1.20;0.90;;;25.20;48.80;;;;;;5060852;28;20033;-66
2022/08/23 13:03:18;;;;;;;0.85;0.77;;;25.20;48.80;;;;;;5061391;28;20442;-67
2022/08/23 13:05:53;;;;;;;1.92;0.90;;;25.20;48.80;;;;;;5059878;28;20021;-67
2022/08/23 13:08:24;;;;;;;1.13;0.73;;;25.20;48.80;;;;;;5064128;28;20120;-68
2022/08/23 13:10:50;;;;;;;1.85;0.98;;;25.10;48.80;;;;;;5059542;28;20025;-66
2022/08/23 13:13:22;;;;;;;0.88;0.80;;;25.20;48.80;;;;;;5062774;28;20052;-67
2022/08/23 13:15:57;;;;;;;1.13;0.80;;;25.20;48.80;;;;;;5062829;28;20475;-67
2022/08/23 13:18:37;;;;;;;0.82;0.80;;;25.20;48.80;;;;;;5061247;28;20492;-67